sensor_id;sensor_type;location;lat;lon;timestamp;temperature;humidity
66873;HTU21D;53781;51.090;5.884;2022-12-24T00:00:07;12.30;77.85
66873;HTU21D;53781;51.090;5.884;2022-12-24T00:00:23;12.31;77.88
66873;HTU21D;53781;51.090;5.884;2022-12-24T00:00:41;12.32;77.91
66873;HTU21D;53781;51.090;5.884;2022-12-24T00:00:56;12.30;77.97
66873;HTU21D;53781;51.090;5.884;2022-12-24T00:01:11;12.30;77.95
66873;HTU21D;53781;51.090;5.884;2022-12-24T00:01:26;12.29;77.94
66873;HTU21D;53781;51.090;5.884;2022-12-24T00:01:41;12.29;78.03
66873;HTU21D;53781;51.090;5.884;2022-12-24T00:01:55;12.31;78.01
66873;HTU21D;53781;51.090;5.884;2022-12-24T00:02:10;12.31;78.04
66873;HTU21D;53781;51.090;5.884;2022-12-24T00:02:25;12.31;78.04
66873;HTU21D;53781;51.090;5.884;2022-12-24T00:02:40;12.30;78.07
66873;HTU21D;53781;51.090;5.884;2022-12-24T00:02:55;12.29;78.11
66873;HTU21D;53781;51.090;5.884;2022-12-24T00:03:10;12.30;78.15
66873;HTU21D;53781;51.090;5.884;2022-12-24T00:03:25;12.29;78.14
66873;HTU21D;53781;51.090;5.884;2022-12-24T00:03:39;12.29;78.20
66873;HTU21D;53781;51.090;5.884;2022-12-24T00:03:54;12.30;78.24
66873;HTU21D;53781;51.090;5.884;2022-12-24T00:04:09;12.28;78.21
66873;HTU21D;53781;51.090;5.884;2022-12-24T00:04:26;12.29;78.27
66873;HTU21D;53781;51.090;5.884;2022-12-24T00:04:41;12.28;78.22
66873;HTU21D;53781;51.090;5.884;2022-12-24T00:04:56;12.28;78.27
66873;HTU21D;53781;51.090;5.884;2022-12-24T00:05:11;12.29;78.31
66873;HTU21D;53781;51.090;5.884;2022-12-24T00:05:26;12.28;78.34
66873;HTU21D;53781;51.090;5.884;2022-12-24T00:05:40;12.27;78.35
66873;HTU21D;53781;51.090;5.884;2022-12-24T00:05:55;12.27;78.37
66873;HTU21D;53781;51.090;5.884;2022-12-24T00:06:19;12.28;78.51
66873;HTU21D;53781;51.090;5.884;2022-12-24T00:06:33;12.29;78.46
66873;HTU21D;53781;51.090;5.884;2022-12-24T00:06:48;12.28;78.50
66873;HTU21D;53781;51.090;5.884;2022-12-24T00:07:03;12.30;78.51
66873;HTU21D;53781;51.090;5.884;2022-12-24T00:07:18;12.28;78.54
66873;HTU21D;53781;51.090;5.884;2022-12-24T00:07:32;12.27;78.53
66873;HTU21D;53781;51.090;5.884;2022-12-24T00:07:47;12.28;78.53
66873;HTU21D;53781;51.090;5.884;2022-12-24T00:08:02;12.28;78.64
66873;HTU21D;53781;51.090;5.884;2022-12-24T00:08:17;12.26;78.67
66873;HTU21D;53781;51.090;5.884;2022-12-24T00:08:31;12.26;78.74
66873;HTU21D;53781;51.090;5.884;2022-12-24T00:08:46;12.27;78.73
66873;HTU21D;53781;51.090;5.884;2022-12-24T00:09:01;12.26;78.72
66873;HTU21D;53781;51.090;5.884;2022-12-24T00:09:16;12.26;78.79
66873;HTU21D;53781;51.090;5.884;2022-12-24T00:09:31;12.26;78.74
66873;HTU21D;53781;51.090;5.884;2022-12-24T00:09:46;12.26;78.82
66873;HTU21D;53781;51.090;5.884;2022-12-24T00:10:01;12.28;78.81
66873;HTU21D;53781;51.090;5.884;2022-12-24T00:10:16;12.27;78.91
66873;HTU21D;53781;51.090;5.884;2022-12-24T00:10:31;12.25;78.85
66873;HTU21D;53781;51.090;5.884;2022-12-24T00:10:49;12.27;78.88
66873;HTU21D;53781;51.090;5.884;2022-12-24T00:11:04;12.27;78.93
66873;HTU21D;53781;51.090;5.884;2022-12-24T00:11:20;12.27;78.85
66873;HTU21D;53781;51.090;5.884;2022-12-24T00:11:34;12.28;78.85
66873;HTU21D;53781;51.090;5.884;2022-12-24T00:11:49;12.26;78.89
66873;HTU21D;53781;51.090;5.884;2022-12-24T00:12:04;12.23;78.93
66873;HTU21D;53781;51.090;5.884;2022-12-24T00:12:19;12.26;78.99
66873;HTU21D;53781;51.090;5.884;2022-12-24T00:12:34;12.26;78.98
66873;HTU21D;53781;51.090;5.884;2022-12-24T00:12:49;12.26;78.98
66873;HTU21D;53781;51.090;5.884;2022-12-24T00:13:04;12.27;79.09
66873;HTU21D;53781;51.090;5.884;2022-12-24T00:13:19;12.26;79.04
66873;HTU21D;53781;51.090;5.884;2022-12-24T00:13:34;12.25;78.98
66873;HTU21D;53781;51.090;5.884;2022-12-24T00:13:49;12.26;79.02
66873;HTU21D;53781;51.090;5.884;2022-12-24T00:14:04;12.27;79.03
66873;HTU21D;53781;51.090;5.884;2022-12-24T00:14:18;12.27;79.05
66873;HTU21D;53781;51.090;5.884;2022-12-24T00:14:33;12.27;79.01
66873;HTU21D;53781;51.090;5.884;2022-12-24T00:14:48;12.26;79.04
66873;HTU21D;53781;51.090;5.884;2022-12-24T00:15:04;12.26;79.07
66873;HTU21D;53781;51.090;5.884;2022-12-24T00:15:19;12.27;79.09
66873;HTU21D;53781;51.090;5.884;2022-12-24T00:15:34;12.25;79.08
66873;HTU21D;53781;51.090;5.884;2022-12-24T00:15:49;12.27;79.13
66873;HTU21D;53781;51.090;5.884;2022-12-24T00:16:04;12.27;79.15
66873;HTU21D;53781;51.090;5.884;2022-12-24T00:16:19;12.26;79.17
66873;HTU21D;53781;51.090;5.884;2022-12-24T00:16:34;12.25;79.14
66873;HTU21D;53781;51.090;5.884;2022-12-24T00:16:48;12.23;79.12
66873;HTU21D;53781;51.090;5.884;2022-12-24T00:17:03;12.25;79.18
66873;HTU21D;53781;51.090;5.884;2022-12-24T00:17:18;12.23;79.24
66873;HTU21D;53781;51.090;5.884;2022-12-24T00:17:33;12.25;79.25
66873;HTU21D;53781;51.090;5.884;2022-12-24T00:17:47;12.25;79.28
66873;HTU21D;53781;51.090;5.884;2022-12-24T00:18:02;12.22;79.29
66873;HTU21D;53781;51.090;5.884;2022-12-24T00:18:17;12.25;79.35
66873;HTU21D;53781;51.090;5.884;2022-12-24T00:18:32;12.23;79.39
66873;HTU21D;53781;51.090;5.884;2022-12-24T00:18:46;12.21;79.43
66873;HTU21D;53781;51.090;5.884;2022-12-24T00:19:01;12.20;79.45
66873;HTU21D;53781;51.090;5.884;2022-12-24T00:19:16;12.21;79.42
66873;HTU21D;53781;51.090;5.884;2022-12-24T00:19:31;12.19;79.52
66873;HTU21D;53781;51.090;5.884;2022-12-24T00:19:45;12.20;79.54
66873;HTU21D;53781;51.090;5.884;2022-12-24T00:20:00;12.19;79.55
66873;HTU21D;53781;51.090;5.884;2022-12-24T00:20:15;12.18;79.52
66873;HTU21D;53781;51.090;5.884;2022-12-24T00:20:30;12.20;79.56
66873;HTU21D;53781;51.090;5.884;2022-12-24T00:20:46;12.19;79.69
66873;HTU21D;53781;51.090;5.884;2022-12-24T00:21:01;12.17;79.73
66873;HTU21D;53781;51.090;5.884;2022-12-24T00:21:17;12.17;79.78
66873;HTU21D;53781;51.090;5.884;2022-12-24T00:21:32;12.14;79.82
66873;HTU21D;53781;51.090;5.884;2022-12-24T00:21:47;12.14;79.86
66873;HTU21D;53781;51.090;5.884;2022-12-24T00:22:01;12.15;79.94
66873;HTU21D;53781;51.090;5.884;2022-12-24T00:22:16;12.15;79.98
66873;HTU21D;53781;51.090;5.884;2022-12-24T00:22:31;12.14;80.01
66873;HTU21D;53781;51.090;5.884;2022-12-24T00:22:45;12.15;80.06
66873;HTU21D;53781;51.090;5.884;2022-12-24T00:23:00;12.16;80.07
66873;HTU21D;53781;51.090;5.884;2022-12-24T00:23:16;12.16;80.06
66873;HTU21D;53781;51.090;5.884;2022-12-24T00:23:31;12.15;80.17
66873;HTU21D;53781;51.090;5.884;2022-12-24T00:23:46;12.14;80.24
66873;HTU21D;53781;51.090;5.884;2022-12-24T00:24:01;12.15;80.19
66873;HTU21D;53781;51.090;5.884;2022-12-24T00:24:17;12.12;80.20
66873;HTU21D;53781;51.090;5.884;2022-12-24T00:24:32;12.16;80.21
66873;HTU21D;53781;51.090;5.884;2022-12-24T00:24:47;12.13;80.19
66873;HTU21D;53781;51.090;5.884;2022-12-24T00:25:01;12.13;80.22
66873;HTU21D;53781;51.090;5.884;2022-12-24T00:25:16;12.12;80.21
66873;HTU21D;53781;51.090;5.884;2022-12-24T00:25:31;12.12;80.24
66873;HTU21D;53781;51.090;5.884;2022-12-24T00:25:46;12.12;80.23
66873;HTU21D;53781;51.090;5.884;2022-12-24T00:26:01;12.10;80.38
66873;HTU21D;53781;51.090;5.884;2022-12-24T00:26:16;12.10;80.37
66873;HTU21D;53781;51.090;5.884;2022-12-24T00:26:31;12.11;80.34
66873;HTU21D;53781;51.090;5.884;2022-12-24T00:26:46;12.07;80.47
66873;HTU21D;53781;51.090;5.884;2022-12-24T00:27:01;12.11;80.42
66873;HTU21D;53781;51.090;5.884;2022-12-24T00:27:17;12.08;80.39
66873;HTU21D;53781;51.090;5.884;2022-12-24T00:27:32;12.10;80.44
66873;HTU21D;53781;51.090;5.884;2022-12-24T00:27:46;12.07;80.48
66873;HTU21D;53781;51.090;5.884;2022-12-24T00:28:01;12.06;80.50
66873;HTU21D;53781;51.090;5.884;2022-12-24T00:28:16;12.06;80.57
66873;HTU21D;53781;51.090;5.884;2022-12-24T00:28:31;12.04;80.58
66873;HTU21D;53781;51.090;5.884;2022-12-24T00:28:45;12.04;80.64
66873;HTU21D;53781;51.090;5.884;2022-12-24T00:29:00;12.06;80.66
66873;HTU21D;53781;51.090;5.884;2022-12-24T00:29:15;12.05;80.77
66873;HTU21D;53781;51.090;5.884;2022-12-24T00:29:30;12.04;80.80
66873;HTU21D;53781;51.090;5.884;2022-12-24T00:29:45;12.05;80.75
66873;HTU21D;53781;51.090;5.884;2022-12-24T00:30:00;12.04;80.81
66873;HTU21D;53781;51.090;5.884;2022-12-24T00:30:15;12.03;80.87
66873;HTU21D;53781;51.090;5.884;2022-12-24T00:30:30;12.06;80.91
66873;HTU21D;53781;51.090;5.884;2022-12-24T00:30:44;12.04;80.94
66873;HTU21D;53781;51.090;5.884;2022-12-24T00:30:59;12.06;80.94
66873;HTU21D;53781;51.090;5.884;2022-12-24T00:31:16;12.05;80.96
66873;HTU21D;53781;51.090;5.884;2022-12-24T00:31:31;12.06;80.99
66873;HTU21D;53781;51.090;5.884;2022-12-24T00:31:46;12.08;81.05
66873;HTU21D;53781;51.090;5.884;2022-12-24T00:32:00;12.06;81.01
66873;HTU21D;53781;51.090;5.884;2022-12-24T00:32:15;12.07;80.96
66873;HTU21D;53781;51.090;5.884;2022-12-24T00:32:30;12.07;80.98
66873;HTU21D;53781;51.090;5.884;2022-12-24T00:32:44;12.05;81.01
66873;HTU21D;53781;51.090;5.884;2022-12-24T00:32:59;12.08;81.04
66873;HTU21D;53781;51.090;5.884;2022-12-24T00:33:14;12.06;81.03
66873;HTU21D;53781;51.090;5.884;2022-12-24T00:33:29;12.08;81.04
66873;HTU21D;53781;51.090;5.884;2022-12-24T00:33:47;12.10;81.07
66873;HTU21D;53781;51.090;5.884;2022-12-24T00:34:01;12.08;81.04
66873;HTU21D;53781;51.090;5.884;2022-12-24T00:34:16;12.08;81.04
66873;HTU21D;53781;51.090;5.884;2022-12-24T00:34:31;12.07;81.08
66873;HTU21D;53781;51.090;5.884;2022-12-24T00:34:45;12.07;81.04
66873;HTU21D;53781;51.090;5.884;2022-12-24T00:35:00;12.08;81.07
66873;HTU21D;53781;51.090;5.884;2022-12-24T00:35:15;12.07;81.05
66873;HTU21D;53781;51.090;5.884;2022-12-24T00:35:35;12.11;81.03
66873;HTU21D;53781;51.090;5.884;2022-12-24T00:35:53;12.07;81.00
66873;HTU21D;53781;51.090;5.884;2022-12-24T00:36:08;12.07;81.02
66873;HTU21D;53781;51.090;5.884;2022-12-24T00:36:23;12.08;81.02
66873;HTU21D;53781;51.090;5.884;2022-12-24T00:36:37;12.08;81.04
66873;HTU21D;53781;51.090;5.884;2022-12-24T00:36:52;12.10;81.06
66873;HTU21D;53781;51.090;5.884;2022-12-24T00:37:07;12.08;81.00
66873;HTU21D;53781;51.090;5.884;2022-12-24T00:37:22;12.07;80.98
66873;HTU21D;53781;51.090;5.884;2022-12-24T00:37:36;12.08;80.97
66873;HTU21D;53781;51.090;5.884;2022-12-24T00:37:51;12.07;80.98
66873;HTU21D;53781;51.090;5.884;2022-12-24T00:38:07;12.08;81.04
66873;HTU21D;53781;51.090;5.884;2022-12-24T00:38:22;12.06;81.03
66873;HTU21D;53781;51.090;5.884;2022-12-24T00:38:37;12.07;80.98
66873;HTU21D;53781;51.090;5.884;2022-12-24T00:38:52;12.05;81.02
66873;HTU21D;53781;51.090;5.884;2022-12-24T00:39:06;12.07;81.02
66873;HTU21D;53781;51.090;5.884;2022-12-24T00:39:21;12.07;81.04
66873;HTU21D;53781;51.090;5.884;2022-12-24T00:39:36;12.07;81.02
66873;HTU21D;53781;51.090;5.884;2022-12-24T00:39:50;12.07;80.98
66873;HTU21D;53781;51.090;5.884;2022-12-24T00:40:06;12.06;80.99
66873;HTU21D;53781;51.090;5.884;2022-12-24T00:40:21;12.07;80.92
66873;HTU21D;53781;51.090;5.884;2022-12-24T00:40:35;12.05;80.99
66873;HTU21D;53781;51.090;5.884;2022-12-24T00:40:50;12.05;81.02
66873;HTU21D;53781;51.090;5.884;2022-12-24T00:41:07;12.06;81.07
66873;HTU21D;53781;51.090;5.884;2022-12-24T00:41:37;12.05;81.09
66873;HTU21D;53781;51.090;5.884;2022-12-24T00:41:52;12.04;81.17
66873;HTU21D;53781;51.090;5.884;2022-12-24T00:42:07;12.03;81.13
66873;HTU21D;53781;51.090;5.884;2022-12-24T00:42:21;12.04;81.13
66873;HTU21D;53781;51.090;5.884;2022-12-24T00:42:36;12.04;81.17
66873;HTU21D;53781;51.090;5.884;2022-12-24T00:42:51;12.05;81.12
66873;HTU21D;53781;51.090;5.884;2022-12-24T00:43:05;12.03;81.17
66873;HTU21D;53781;51.090;5.884;2022-12-24T00:43:20;12.03;81.22
66873;HTU21D;53781;51.090;5.884;2022-12-24T00:43:35;12.05;81.14
66873;HTU21D;53781;51.090;5.884;2022-12-24T00:43:56;12.04;81.10
66873;HTU21D;53781;51.090;5.884;2022-12-24T00:44:11;12.04;81.14
66873;HTU21D;53781;51.090;5.884;2022-12-24T00:44:26;12.03;81.16
66873;HTU21D;53781;51.090;5.884;2022-12-24T00:44:41;12.03;81.09
66873;HTU21D;53781;51.090;5.884;2022-12-24T00:44:56;12.02;81.07
66873;HTU21D;53781;51.090;5.884;2022-12-24T00:45:11;12.01;81.13
66873;HTU21D;53781;51.090;5.884;2022-12-24T00:45:26;12.02;81.11
66873;HTU21D;53781;51.090;5.884;2022-12-24T00:45:44;12.01;81.14
66873;HTU21D;53781;51.090;5.884;2022-12-24T00:45:59;12.01;81.09
66873;HTU21D;53781;51.090;5.884;2022-12-24T00:46:13;12.00;81.17
66873;HTU21D;53781;51.090;5.884;2022-12-24T00:46:30;12.01;81.21
66873;HTU21D;53781;51.090;5.884;2022-12-24T00:46:45;11.99;81.20
66873;HTU21D;53781;51.090;5.884;2022-12-24T00:47:00;12.01;81.20
66873;HTU21D;53781;51.090;5.884;2022-12-24T00:47:15;12.00;81.14
66873;HTU21D;53781;51.090;5.884;2022-12-24T00:47:29;11.99;81.26
66873;HTU21D;53781;51.090;5.884;2022-12-24T00:47:44;11.99;81.23
66873;HTU21D;53781;51.090;5.884;2022-12-24T00:47:59;11.99;81.21
66873;HTU21D;53781;51.090;5.884;2022-12-24T00:48:13;12.00;81.26
66873;HTU21D;53781;51.090;5.884;2022-12-24T00:48:28;11.99;81.20
66873;HTU21D;53781;51.090;5.884;2022-12-24T00:48:43;11.99;81.21
66873;HTU21D;53781;51.090;5.884;2022-12-24T00:48:58;12.03;81.23
66873;HTU21D;53781;51.090;5.884;2022-12-24T00:49:13;12.02;81.20
66873;HTU21D;53781;51.090;5.884;2022-12-24T00:49:28;12.00;81.23
66873;HTU21D;53781;51.090;5.884;2022-12-24T00:49:42;12.00;81.14
66873;HTU21D;53781;51.090;5.884;2022-12-24T00:49:57;12.02;81.20
66873;HTU21D;53781;51.090;5.884;2022-12-24T00:50:12;12.00;81.19
66873;HTU21D;53781;51.090;5.884;2022-12-24T00:50:26;12.00;81.27
66873;HTU21D;53781;51.090;5.884;2022-12-24T00:50:41;12.00;81.26
66873;HTU21D;53781;51.090;5.884;2022-12-24T00:50:56;12.00;81.25
66873;HTU21D;53781;51.090;5.884;2022-12-24T00:51:11;11.99;81.26
66873;HTU21D;53781;51.090;5.884;2022-12-24T00:51:25;12.00;81.23
66873;HTU21D;53781;51.090;5.884;2022-12-24T00:51:40;12.00;81.24
66873;HTU21D;53781;51.090;5.884;2022-12-24T00:51:55;11.99;81.29
66873;HTU21D;53781;51.090;5.884;2022-12-24T00:52:10;11.99;81.32
66873;HTU21D;53781;51.090;5.884;2022-12-24T00:52:24;11.99;81.32
66873;HTU21D;53781;51.090;5.884;2022-12-24T00:52:39;12.01;81.29
66873;HTU21D;53781;51.090;5.884;2022-12-24T00:52:54;12.00;81.29
66873;HTU21D;53781;51.090;5.884;2022-12-24T00:53:09;12.01;81.18
66873;HTU21D;53781;51.090;5.884;2022-12-24T00:53:23;12.00;81.27
66873;HTU21D;53781;51.090;5.884;2022-12-24T00:53:38;11.99;81.23
66873;HTU21D;53781;51.090;5.884;2022-12-24T00:53:53;12.00;81.17
66873;HTU21D;53781;51.090;5.884;2022-12-24T00:54:08;12.00;81.17
66873;HTU21D;53781;51.090;5.884;2022-12-24T00:54:23;12.00;81.14
66873;HTU21D;53781;51.090;5.884;2022-12-24T00:54:38;12.02;80.95
66873;HTU21D;53781;51.090;5.884;2022-12-24T00:54:52;12.02;80.98
66873;HTU21D;53781;51.090;5.884;2022-12-24T00:55:07;12.01;80.95
66873;HTU21D;53781;51.090;5.884;2022-12-24T00:55:22;12.00;81.02
66873;HTU21D;53781;51.090;5.884;2022-12-24T00:55:37;12.01;81.01
66873;HTU21D;53781;51.090;5.884;2022-12-24T00:55:52;12.00;81.01
66873;HTU21D;53781;51.090;5.884;2022-12-24T00:56:07;11.99;81.01
66873;HTU21D;53781;51.090;5.884;2022-12-24T00:56:22;12.00;81.03
66873;HTU21D;53781;51.090;5.884;2022-12-24T00:56:37;12.00;81.07
66873;HTU21D;53781;51.090;5.884;2022-12-24T00:56:51;11.99;80.98
66873;HTU21D;53781;51.090;5.884;2022-12-24T00:57:06;11.98;81.00
66873;HTU21D;53781;51.090;5.884;2022-12-24T00:57:21;12.00;80.98
66873;HTU21D;53781;51.090;5.884;2022-12-24T00:57:35;11.98;81.03
66873;HTU21D;53781;51.090;5.884;2022-12-24T00:57:50;11.99;81.01
66873;HTU21D;53781;51.090;5.884;2022-12-24T00:58:05;11.99;81.03
66873;HTU21D;53781;51.090;5.884;2022-12-24T00:58:20;12.01;81.02
66873;HTU21D;53781;51.090;5.884;2022-12-24T00:58:35;11.99;81.06
66873;HTU21D;53781;51.090;5.884;2022-12-24T00:58:50;11.98;81.05
66873;HTU21D;53781;51.090;5.884;2022-12-24T00:59:04;12.00;81.01
66873;HTU21D;53781;51.090;5.884;2022-12-24T00:59:19;11.99;80.95
66873;HTU21D;53781;51.090;5.884;2022-12-24T00:59:34;11.98;81.01
66873;HTU21D;53781;51.090;5.884;2022-12-24T00:59:48;11.99;81.01
66873;HTU21D;53781;51.090;5.884;2022-12-24T01:00:04;12.01;80.92
66873;HTU21D;53781;51.090;5.884;2022-12-24T01:00:19;11.99;80.94
66873;HTU21D;53781;51.090;5.884;2022-12-24T01:00:33;11.99;80.96
66873;HTU21D;53781;51.090;5.884;2022-12-24T01:00:48;12.00;80.94
66873;HTU21D;53781;51.090;5.884;2022-12-24T01:01:04;11.99;81.00
66873;HTU21D;53781;51.090;5.884;2022-12-24T01:01:19;12.00;80.94
66873;HTU21D;53781;51.090;5.884;2022-12-24T01:01:34;12.00;81.00
66873;HTU21D;53781;51.090;5.884;2022-12-24T01:01:50;11.98;81.03
66873;HTU21D;53781;51.090;5.884;2022-12-24T01:02:04;12.00;81.05
66873;HTU21D;53781;51.090;5.884;2022-12-24T01:02:19;11.99;81.00
66873;HTU21D;53781;51.090;5.884;2022-12-24T01:02:34;11.98;81.01
66873;HTU21D;53781;51.090;5.884;2022-12-24T01:02:49;12.00;80.96
66873;HTU21D;53781;51.090;5.884;2022-12-24T01:03:04;11.99;80.91
66873;HTU21D;53781;51.090;5.884;2022-12-24T01:03:18;12.01;80.78
66873;HTU21D;53781;51.090;5.884;2022-12-24T01:03:33;12.01;80.82
66873;HTU21D;53781;51.090;5.884;2022-12-24T01:03:52;12.00;80.79
66873;HTU21D;53781;51.090;5.884;2022-12-24T01:04:26;11.98;80.78
66873;HTU21D;53781;51.090;5.884;2022-12-24T01:05:00;11.97;80.81
66873;HTU21D;53781;51.090;5.884;2022-12-24T01:05:23;11.94;80.81
66873;HTU21D;53781;51.090;5.884;2022-12-24T01:05:38;11.96;80.72
66873;HTU21D;53781;51.090;5.884;2022-12-24T01:05:53;11.97;80.87
66873;HTU21D;53781;51.090;5.884;2022-12-24T01:06:11;11.97;80.76
66873;HTU21D;53781;51.090;5.884;2022-12-24T01:06:25;11.97;80.79
66873;HTU21D;53781;51.090;5.884;2022-12-24T01:06:40;11.96;80.77
66873;HTU21D;53781;51.090;5.884;2022-12-24T01:06:55;11.92;80.87
66873;HTU21D;53781;51.090;5.884;2022-12-24T01:07:10;11.96;80.79
66873;HTU21D;53781;51.090;5.884;2022-12-24T01:07:24;11.94;80.75
66873;HTU21D;53781;51.090;5.884;2022-12-24T01:07:43;11.93;80.82
66873;HTU21D;53781;51.090;5.884;2022-12-24T01:07:58;11.97;80.76
66873;HTU21D;53781;51.090;5.884;2022-12-24T01:08:13;11.96;80.82
66873;HTU21D;53781;51.090;5.884;2022-12-24T01:08:27;11.94;80.81
66873;HTU21D;53781;51.090;5.884;2022-12-24T01:08:42;11.94;80.92
66873;HTU21D;53781;51.090;5.884;2022-12-24T01:08:57;11.94;80.86
66873;HTU21D;53781;51.090;5.884;2022-12-24T01:09:12;11.96;80.80
66873;HTU21D;53781;51.090;5.884;2022-12-24T01:09:26;11.93;80.96
66873;HTU21D;53781;51.090;5.884;2022-12-24T01:09:41;11.96;80.87
66873;HTU21D;53781;51.090;5.884;2022-12-24T01:09:56;11.97;80.88
66873;HTU21D;53781;51.090;5.884;2022-12-24T01:10:14;11.96;80.85
66873;HTU21D;53781;51.090;5.884;2022-12-24T01:10:29;11.94;80.87
66873;HTU21D;53781;51.090;5.884;2022-12-24T01:10:44;11.96;80.85
66873;HTU21D;53781;51.090;5.884;2022-12-24T01:11:00;11.94;80.84
66873;HTU21D;53781;51.090;5.884;2022-12-24T01:11:15;11.93;80.84
66873;HTU21D;53781;51.090;5.884;2022-12-24T01:11:30;11.92;80.86
66873;HTU21D;53781;51.090;5.884;2022-12-24T01:11:45;11.94;80.89
66873;HTU21D;53781;51.090;5.884;2022-12-24T01:12:00;11.94;80.83
66873;HTU21D;53781;51.090;5.884;2022-12-24T01:12:15;11.94;80.91
66873;HTU21D;53781;51.090;5.884;2022-12-24T01:12:29;11.94;80.84
66873;HTU21D;53781;51.090;5.884;2022-12-24T01:12:45;11.93;80.79
66873;HTU21D;53781;51.090;5.884;2022-12-24T01:13:01;11.93;80.83
66873;HTU21D;53781;51.090;5.884;2022-12-24T01:13:16;11.92;80.81
66873;HTU21D;53781;51.090;5.884;2022-12-24T01:13:31;11.94;80.82
66873;HTU21D;53781;51.090;5.884;2022-12-24T01:13:46;11.91;80.84
66873;HTU21D;53781;51.090;5.884;2022-12-24T01:14:01;11.93;80.90
66873;HTU21D;53781;51.090;5.884;2022-12-24T01:14:15;11.94;80.70
66873;HTU21D;53781;51.090;5.884;2022-12-24T01:14:30;11.93;80.72
66873;HTU21D;53781;51.090;5.884;2022-12-24T01:14:45;11.93;80.68
66873;HTU21D;53781;51.090;5.884;2022-12-24T01:14:59;11.93;80.71
66873;HTU21D;53781;51.090;5.884;2022-12-24T01:15:14;11.92;80.75
66873;HTU21D;53781;51.090;5.884;2022-12-24T01:15:29;11.93;80.80
66873;HTU21D;53781;51.090;5.884;2022-12-24T01:15:44;11.93;80.77
66873;HTU21D;53781;51.090;5.884;2022-12-24T01:15:59;11.93;80.73
66873;HTU21D;53781;51.090;5.884;2022-12-24T01:16:18;11.94;80.70
66873;HTU21D;53781;51.090;5.884;2022-12-24T01:16:33;11.94;80.74
66873;HTU21D;53781;51.090;5.884;2022-12-24T01:16:48;11.96;80.76
66873;HTU21D;53781;51.090;5.884;2022-12-24T01:17:04;11.93;80.69
66873;HTU21D;53781;51.090;5.884;2022-12-24T01:17:18;11.96;80.65
66873;HTU21D;53781;51.090;5.884;2022-12-24T01:17:34;11.97;80.69
66873;HTU21D;53781;51.090;5.884;2022-12-24T01:17:48;11.94;80.62
66873;HTU21D;53781;51.090;5.884;2022-12-24T01:18:03;11.94;80.59
66873;HTU21D;53781;51.090;5.884;2022-12-24T01:18:18;11.96;80.61
66873;HTU21D;53781;51.090;5.884;2022-12-24T01:18:33;11.96;80.60
66873;HTU21D;53781;51.090;5.884;2022-12-24T01:18:47;11.96;80.59
66873;HTU21D;53781;51.090;5.884;2022-12-24T01:19:02;11.97;80.61
66873;HTU21D;53781;51.090;5.884;2022-12-24T01:19:17;11.97;80.65
66873;HTU21D;53781;51.090;5.884;2022-12-24T01:19:32;11.96;80.55
66873;HTU21D;53781;51.090;5.884;2022-12-24T01:19:47;11.97;80.60
66873;HTU21D;53781;51.090;5.884;2022-12-24T01:20:04;11.97;80.58
66873;HTU21D;53781;51.090;5.884;2022-12-24T01:20:19;11.94;80.60
66873;HTU21D;53781;51.090;5.884;2022-12-24T01:20:34;11.96;80.56
66873;HTU21D;53781;51.090;5.884;2022-12-24T01:20:57;11.96;80.58
66873;HTU21D;53781;51.090;5.884;2022-12-24T01:21:12;11.97;80.50
66873;HTU21D;53781;51.090;5.884;2022-12-24T01:21:26;11.94;80.54
66873;HTU21D;53781;51.090;5.884;2022-12-24T01:21:41;11.98;80.59
66873;HTU21D;53781;51.090;5.884;2022-12-24T01:21:57;11.97;80.52
66873;HTU21D;53781;51.090;5.884;2022-12-24T01:22:12;11.98;80.55
66873;HTU21D;53781;51.090;5.884;2022-12-24T01:22:26;11.99;80.48
66873;HTU21D;53781;51.090;5.884;2022-12-24T01:22:41;11.98;80.42
66873;HTU21D;53781;51.090;5.884;2022-12-24T01:22:56;11.99;80.46
66873;HTU21D;53781;51.090;5.884;2022-12-24T01:23:11;11.98;80.47
66873;HTU21D;53781;51.090;5.884;2022-12-24T01:23:26;11.98;80.46
66873;HTU21D;53781;51.090;5.884;2022-12-24T01:23:40;11.99;80.42
66873;HTU21D;53781;51.090;5.884;2022-12-24T01:23:55;11.99;80.46
66873;HTU21D;53781;51.090;5.884;2022-12-24T01:24:14;12.00;80.46
66873;HTU21D;53781;51.090;5.884;2022-12-24T01:24:29;11.98;80.48
66873;HTU21D;53781;51.090;5.884;2022-12-24T01:24:44;11.98;80.53
66873;HTU21D;53781;51.090;5.884;2022-12-24T01:24:59;11.97;80.48
66873;HTU21D;53781;51.090;5.884;2022-12-24T01:25:14;11.99;80.43
66873;HTU21D;53781;51.090;5.884;2022-12-24T01:25:29;11.98;80.50
66873;HTU21D;53781;51.090;5.884;2022-12-24T01:25:43;11.97;80.53
66873;HTU21D;53781;51.090;5.884;2022-12-24T01:26:00;12.01;80.42
66873;HTU21D;53781;51.090;5.884;2022-12-24T01:26:15;12.01;80.38
66873;HTU21D;53781;51.090;5.884;2022-12-24T01:26:30;12.02;80.34
66873;HTU21D;53781;51.090;5.884;2022-12-24T01:26:45;12.01;80.36
66873;HTU21D;53781;51.090;5.884;2022-12-24T01:26:59;12.01;80.36
66873;HTU21D;53781;51.090;5.884;2022-12-24T01:27:14;12.02;80.30
66873;HTU21D;53781;51.090;5.884;2022-12-24T01:27:29;12.00;80.25
66873;HTU21D;53781;51.090;5.884;2022-12-24T01:27:44;12.00;80.24
66873;HTU21D;53781;51.090;5.884;2022-12-24T01:27:58;12.00;80.23
66873;HTU21D;53781;51.090;5.884;2022-12-24T01:28:13;11.99;80.26
66873;HTU21D;53781;51.090;5.884;2022-12-24T01:28:28;12.01;80.28
66873;HTU21D;53781;51.090;5.884;2022-12-24T01:28:43;12.02;80.24
66873;HTU21D;53781;51.090;5.884;2022-12-24T01:28:58;12.01;80.28
66873;HTU21D;53781;51.090;5.884;2022-12-24T01:29:13;12.01;80.32
66873;HTU21D;53781;51.090;5.884;2022-12-24T01:29:28;12.02;80.33
66873;HTU21D;53781;51.090;5.884;2022-12-24T01:29:42;12.00;80.26
66873;HTU21D;53781;51.090;5.884;2022-12-24T01:29:57;12.02;80.34
66873;HTU21D;53781;51.090;5.884;2022-12-24T01:30:12;12.01;80.30
66873;HTU21D;53781;51.090;5.884;2022-12-24T01:30:28;12.01;80.36
66873;HTU21D;53781;51.090;5.884;2022-12-24T01:30:43;12.02;80.25
66873;HTU21D;53781;51.090;5.884;2022-12-24T01:30:57;12.03;80.27
66873;HTU21D;53781;51.090;5.884;2022-12-24T01:31:15;12.03;80.32
66873;HTU21D;53781;51.090;5.884;2022-12-24T01:31:30;12.02;80.22
66873;HTU21D;53781;51.090;5.884;2022-12-24T01:31:44;12.02;80.27
66873;HTU21D;53781;51.090;5.884;2022-12-24T01:31:59;12.01;80.21
66873;HTU21D;53781;51.090;5.884;2022-12-24T01:32:14;12.01;80.26
66873;HTU21D;53781;51.090;5.884;2022-12-24T01:32:29;12.03;80.29
66873;HTU21D;53781;51.090;5.884;2022-12-24T01:32:43;12.02;80.31
66873;HTU21D;53781;51.090;5.884;2022-12-24T01:32:58;12.00;80.26
66873;HTU21D;53781;51.090;5.884;2022-12-24T01:33:13;12.03;80.27
66873;HTU21D;53781;51.090;5.884;2022-12-24T01:33:29;12.03;80.27
66873;HTU21D;53781;51.090;5.884;2022-12-24T01:33:45;12.02;80.28
66873;HTU21D;53781;51.090;5.884;2022-12-24T01:34:00;12.02;80.28
66873;HTU21D;53781;51.090;5.884;2022-12-24T01:34:15;12.02;80.24
66873;HTU21D;53781;51.090;5.884;2022-12-24T01:34:30;12.03;80.29
66873;HTU21D;53781;51.090;5.884;2022-12-24T01:34:45;12.01;80.20